Time;durP1;ratioP1;P1;durP2;ratioP2;P2;SDS_P1;SDS_P2;PMS_P1;PMS_P2;Temp;Humidity;BMP_temperature;BMP_pressure;BME280_temperature;BME280_humidity;BME280_pressure;Samples;Min_cycle;Max_cycle;Signal;HPM_P1;HPM_P2
2023/11/23 00:08:41;;;;;;;39.77;17.13;;;-3.00;99.90;;;;;;4935211;29;20227;-84
2023/11/23 00:11:09;;;;;;;41.37;17.70;;;-3.00;99.90;;;;;;4936216;29;20673;-84
2023/11/23 00:13:37;;;;;;;37.37;16.87;;;-3.00;99.90;;;;;;4920048;29;20237;-83
2023/11/23 00:16:15;;;;;;;39.57;17.43;;;-3.00;99.90;;;;;;4922258;29;20652;-86
2023/11/23 00:19:15;;;;;;;40.70;17.23;;;-3.00;99.90;;;;;;4937941;29;20224;-83
2023/11/23 00:22:28;;;;;;;37.80;15.53;;;-2.90;99.90;;;;;;4935073;29;20354;-88
2023/11/23 00:24:55;;;;;;;38.50;16.97;;;-2.80;99.90;;;;;;4936506;29;20192;-85
2023/11/23 00:27:22;;;;;;;39.00;15.57;;;-2.90;99.90;;;;;;4934449;29;20660;-84
2023/11/23 00:29:49;;;;;;;32.30;15.60;;;-2.90;99.90;;;;;;4936295;29;20285;-85
2023/11/23 00:32:17;;;;;;;31.30;14.97;;;-2.90;99.90;;;;;;4918866;29;20219;-85
2023/11/23 00:34:44;;;;;;;35.60;15.50;;;-2.90;99.90;;;;;;4936248;29;20218;-86
2023/11/23 00:37:11;;;;;;;33.17;15.00;;;-2.90;99.90;;;;;;4919160;29;20205;-84
2023/11/23 00:39:38;;;;;;;35.67;15.00;;;-2.80;99.90;;;;;;4935855;29;20278;-82
2023/11/23 00:42:06;;;;;;;33.83;15.40;;;-2.70;99.90;;;;;;4935933;29;20214;-84
2023/11/23 00:44:33;;;;;;;31.17;14.13;;;-2.80;99.90;;;;;;4943119;29;20258;-84
2023/11/23 00:47:00;;;;;;;29.60;14.47;;;-2.80;99.90;;;;;;4943061;29;20287;-84
2023/11/23 00:49:27;;;;;;;29.10;13.00;;;-2.70;99.90;;;;;;4936225;29;20200;-85
2023/11/23 00:51:55;;;;;;;29.27;13.57;;;-2.70;99.90;;;;;;4935776;29;20271;-84
2023/11/23 00:54:22;;;;;;;28.67;14.13;;;-2.70;99.90;;;;;;4918260;29;20231;-83
2023/11/23 00:56:49;;;;;;;27.27;13.53;;;-2.70;99.90;;;;;;4934655;29;20215;-84
2023/11/23 00:59:16;;;;;;;29.67;13.10;;;-2.70;99.90;;;;;;4935737;29;20196;-84
2023/11/23 01:01:44;;;;;;;29.50;13.13;;;-2.80;99.90;;;;;;4935857;29;20199;-83
2023/11/23 01:04:13;;;;;;;28.57;12.57;;;-2.80;99.90;;;;;;4936034;29;20668;-85
2023/11/23 01:06:41;;;;;;;27.80;13.27;;;-2.70;99.90;;;;;;4934792;29;20259;-84
2023/11/23 01:09:09;;;;;;;26.30;12.43;;;-2.70;99.90;;;;;;4941704;29;20226;-81
2023/11/23 01:11:36;;;;;;;31.13;13.77;;;-2.70;99.90;;;;;;4932370;29;20243;-82
2023/11/23 01:14:03;;;;;;;32.13;13.93;;;-2.70;99.90;;;;;;4950827;29;20199;-82
2023/11/23 01:16:32;;;;;;;30.33;13.97;;;-2.80;99.90;;;;;;4944653;29;20207;-88
2023/11/23 01:18:59;;;;;;;29.60;12.93;;;-2.80;99.90;;;;;;4936008;29;20274;-85
2023/11/23 01:21:26;;;;;;;25.70;12.47;;;-2.70;99.90;;;;;;4934105;29;20214;-82
2023/11/23 01:23:53;;;;;;;26.70;13.23;;;-2.80;99.90;;;;;;4918551;29;20204;-84
2023/11/23 01:26:21;;;;;;;27.67;13.03;;;-2.80;99.90;;;;;;4934035;29;20219;-84
2023/11/23 01:28:47;;;;;;;28.13;13.57;;;-2.80;99.90;;;;;;4918081;29;20294;-84
2023/11/23 01:31:14;;;;;;;25.03;12.47;;;-2.70;99.90;;;;;;4935048;29;20215;-84
2023/11/23 01:33:42;;;;;;;26.93;13.00;;;-2.80;99.90;;;;;;4935778;29;20246;-85
2023/11/23 01:36:09;;;;;;;29.47;13.03;;;-2.80;99.90;;;;;;4940022;29;20215;-84
2023/11/23 01:38:36;;;;;;;25.53;12.63;;;-2.80;99.90;;;;;;4938547;29;20644;-86
2023/11/23 01:41:03;;;;;;;27.33;13.20;;;-2.70;99.90;;;;;;4917853;29;20252;-84
2023/11/23 01:43:31;;;;;;;27.57;12.73;;;-2.70;99.90;;;;;;4917869;29;20580;-85
2023/11/23 01:45:58;;;;;;;24.37;12.20;;;-2.60;99.90;;;;;;4934795;29;20198;-84
2023/11/23 01:48:28;;;;;;;27.97;12.83;;;-2.70;99.90;;;;;;4935211;29;20200;-84
2023/11/23 01:50:56;;;;;;;28.03;13.00;;;-2.60;99.90;;;;;;4936875;29;20200;-84
2023/11/23 01:53:25;;;;;;;26.93;11.93;;;-2.60;99.90;;;;;;4939303;29;20223;-86
2023/11/23 01:55:52;;;;;;;26.57;12.53;;;-2.60;99.90;;;;;;4950784;29;20288;-85
2023/11/23 01:58:21;;;;;;;24.17;12.37;;;-2.60;99.90;;;;;;4950378;29;20238;-82
2023/11/23 02:00:50;;;;;;;24.70;12.07;;;-2.50;99.90;;;;;;4952920;29;20249;-83
2023/11/23 02:03:22;;;;;;;30.43;13.10;;;-2.60;99.90;;;;;;4950255;29;20195;-82
2023/11/23 02:05:49;;;;;;;23.07;11.57;;;-2.60;99.90;;;;;;4943068;29;20728;-83
2023/11/23 02:08:16;;;;;;;27.50;12.60;;;-2.60;99.90;;;;;;4938658;29;20415;-85
2023/11/23 02:10:43;;;;;;;24.67;12.60;;;-2.60;99.90;;;;;;4938717;29;20297;-84
2023/11/23 02:13:10;;;;;;;26.03;12.50;;;-2.60;99.90;;;;;;4939072;29;20222;-85
2023/11/23 02:15:40;;;;;;;25.80;12.77;;;-2.70;99.90;;;;;;4938423;29;20202;-83
2023/11/23 02:18:11;;;;;;;24.00;12.23;;;-2.70;99.90;;;;;;4937538;29;20195;-91
2023/11/23 02:20:41;;;;;;;27.90;13.10;;;-2.70;99.90;;;;;;4921519;29;20574;-81
2023/11/23 02:23:08;;;;;;;27.23;12.67;;;-2.70;99.90;;;;;;4938784;29;20211;-83
2023/11/23 02:25:35;;;;;;;26.60;12.93;;;-2.70;99.90;;;;;;4938458;29;20266;-83
2023/11/23 02:28:05;;;;;;;26.40;12.93;;;-2.60;99.90;;;;;;4938514;29;20226;-82
2023/11/23 02:30:32;;;;;;;28.70;13.03;;;-2.60;99.90;;;;;;4937388;29;20538;-82
2023/11/23 02:33:03;;;;;;;25.03;12.93;;;-2.60;99.90;;;;;;4937253;29;20228;-83
2023/11/23 02:35:30;;;;;;;29.00;13.53;;;-2.60;99.90;;;;;;4938401;29;20197;-83
2023/11/23 02:37:58;;;;;;;26.00;12.43;;;-2.50;99.90;;;;;;4938140;29;20210;-82
2023/11/23 02:40:25;;;;;;;27.77;13.47;;;-2.50;99.90;;;;;;4937067;29;20224;-83
2023/11/23 02:42:52;;;;;;;29.80;14.17;;;-2.50;99.90;;;;;;4938621;29;20210;-86
2023/11/23 02:45:19;;;;;;;29.17;13.97;;;-2.50;99.90;;;;;;4937978;29;20657;-83
2023/11/23 02:47:46;;;;;;;31.07;15.13;;;-2.40;99.90;;;;;;4939469;29;20644;-86
2023/11/23 02:50:14;;;;;;;32.90;14.87;;;-2.50;99.90;;;;;;4938681;29;20197;-84
2023/11/23 02:52:41;;;;;;;29.33;14.50;;;-2.40;99.90;;;;;;4936976;29;20263;-83
2023/11/23 02:55:10;;;;;;;31.97;15.43;;;-2.40;99.90;;;;;;4938147;29;20270;-83
2023/11/23 02:57:38;;;;;;;32.80;15.17;;;-2.40;99.90;;;;;;4938143;29;20203;-84
2023/11/23 03:00:07;;;;;;;29.57;15.20;;;-2.40;99.90;;;;;;4938247;29;20195;-83
2023/11/23 03:02:34;;;;;;;32.83;14.93;;;-2.40;99.90;;;;;;4936447;29;20187;-83
2023/11/23 03:05:02;;;;;;;31.03;15.30;;;-2.40;99.90;;;;;;4920504;29;20198;-84
2023/11/23 03:07:29;;;;;;;32.37;15.40;;;-2.40;99.90;;;;;;4931520;29;20254;-83
2023/11/23 03:09:57;;;;;;;32.90;15.83;;;-2.40;99.90;;;;;;4918827;29;20257;-84
2023/11/23 03:12:26;;;;;;;34.73;15.77;;;-2.40;99.90;;;;;;4918216;29;20746;-82
2023/11/23 03:14:53;;;;;;;36.53;16.30;;;-2.40;99.90;;;;;;4917482;29;20218;-82
2023/11/23 03:17:20;;;;;;;30.47;15.20;;;-2.40;99.90;;;;;;4918752;29;20590;-82
2023/11/23 03:19:47;;;;;;;32.40;16.07;;;-2.30;99.90;;;;;;4916864;29;20611;-82
2023/11/23 03:22:14;;;;;;;33.83;16.70;;;-2.30;99.90;;;;;;4918192;29;20261;-82
2023/11/23 03:24:42;;;;;;;35.73;16.10;;;-2.30;99.90;;;;;;4901323;29;20213;-82
2023/11/23 03:27:09;;;;;;;32.90;16.40;;;-2.30;99.90;;;;;;4918560;29;20224;-82
2023/11/23 03:29:36;;;;;;;35.80;16.40;;;-2.30;99.90;;;;;;4901429;29;20188;-82
2023/11/23 03:32:04;;;;;;;35.27;17.30;;;-2.30;99.90;;;;;;4916835;29;20216;-81
2023/11/23 03:34:31;;;;;;;38.90;17.00;;;-2.40;99.90;;;;;;4901098;29;20596;-81
2023/11/23 03:36:58;;;;;;;35.17;17.67;;;-2.40;99.90;;;;;;4916973;29;20218;-82
2023/11/23 03:39:26;;;;;;;39.97;18.07;;;-2.40;99.90;;;;;;4918111;29;20260;-83
2023/11/23 03:41:53;;;;;;;41.57;17.23;;;-2.30;99.90;;;;;;4918109;29;20228;-82
2023/11/23 03:44:20;;;;;;;36.83;16.67;;;-2.30;99.90;;;;;;4901195;29;20192;-84
2023/11/23 03:46:47;;;;;;;36.60;17.70;;;-2.30;99.90;;;;;;4917715;29;20282;-83
2023/11/23 03:49:14;;;;;;;36.40;17.53;;;-2.30;99.90;;;;;;4916938;29;20210;-83
2023/11/23 03:51:41;;;;;;;37.50;17.37;;;-2.30;99.90;;;;;;4901289;29;20634;-84
2023/11/23 03:54:09;;;;;;;37.13;17.60;;;-2.20;99.90;;;;;;4917726;29;20201;-83
2023/11/23 03:56:37;;;;;;;42.00;17.70;;;-2.20;99.90;;;;;;4917638;29;20228;-82
2023/11/23 03:59:05;;;;;;;37.17;17.33;;;-2.20;99.90;;;;;;4916165;29;20244;-85
2023/11/23 04:01:32;;;;;;;34.87;16.90;;;-2.10;99.90;;;;;;4917757;29;20204;-85
2023/11/23 04:04:00;;;;;;;36.87;17.77;;;-2.10;99.90;;;;;;4917585;29;20724;-82
2023/11/23 04:06:27;;;;;;;44.23;17.77;;;-2.10;99.90;;;;;;4917447;29;20219;-83
2023/11/23 04:08:54;;;;;;;39.07;17.27;;;-2.00;99.90;;;;;;4929574;29;20230;-83
2023/11/23 04:11:23;;;;;;;39.13;18.37;;;-2.00;99.90;;;;;;4936746;29;20220;-84
2023/11/23 04:13:50;;;;;;;41.43;17.97;;;-2.00;99.90;;;;;;4935515;29;20223;-82
2023/11/23 04:16:17;;;;;;;40.27;18.27;;;-2.00;99.90;;;;;;4935267;29;20196;-80
2023/11/23 04:18:44;;;;;;;38.27;18.13;;;-2.00;99.90;;;;;;4936599;29;20203;-81
2023/11/23 04:21:12;;;;;;;38.57;17.83;;;-2.00;99.90;;;;;;4951044;29;20225;-84
2023/11/23 04:23:39;;;;;;;36.73;17.63;;;-1.90;99.90;;;;;;4936309;29;20567;-86
2023/11/23 04:26:07;;;;;;;37.40;17.23;;;-1.80;99.90;;;;;;4936388;29;20241;-85
2023/11/23 04:28:35;;;;;;;37.37;17.60;;;-1.90;99.90;;;;;;4936231;29;20231;-86
2023/11/23 04:31:03;;;;;;;38.13;17.47;;;-1.90;99.90;;;;;;4935111;29;20230;-85
2023/11/23 04:33:30;;;;;;;38.53;17.63;;;-1.80;99.90;;;;;;4934684;29;20230;-84
2023/11/23 04:35:58;;;;;;;37.47;17.93;;;-1.80;99.90;;;;;;4936416;29;20593;-84
2023/11/23 04:38:25;;;;;;;40.57;17.93;;;-1.80;99.90;;;;;;4936544;29;20196;-84
2023/11/23 04:40:52;;;;;;;38.37;16.80;;;-1.80;99.90;;;;;;4950738;29;20403;-84
2023/11/23 04:43:19;;;;;;;38.40;17.87;;;-1.80;99.90;;;;;;4935119;29;20201;-84
2023/11/23 04:45:46;;;;;;;36.57;17.70;;;-1.70;99.90;;;;;;4936642;29;20201;-85
2023/11/23 04:48:14;;;;;;;36.53;16.63;;;-1.60;99.90;;;;;;4934809;29;20246;-85
2023/11/23 04:50:41;;;;;;;35.93;17.10;;;-1.60;99.90;;;;;;4935769;29;20285;-84
2023/11/23 04:53:08;;;;;;;37.40;16.87;;;-1.60;99.90;;;;;;4935625;29;20317;-85
2023/11/23 04:55:37;;;;;;;39.67;17.80;;;-1.60;99.90;;;;;;4935388;29;20309;-84
2023/11/23 04:58:04;;;;;;;36.70;17.23;;;-1.60;99.90;;;;;;4936608;29;20245;-85
2023/11/23 05:00:30;;;;;;;38.50;16.90;;;-1.50;99.90;;;;;;4934655;29;20207;-85
2023/11/23 05:02:58;;;;;;;35.03;16.90;;;-1.40;99.90;;;;;;4935961;29;20247;-85
2023/11/23 05:05:26;;;;;;;34.07;16.07;;;-1.40;99.90;;;;;;4950612;29;20659;-85
2023/11/23 05:07:53;;;;;;;36.77;16.70;;;-1.40;99.90;;;;;;4935769;29;20318;-84
2023/11/23 05:10:20;;;;;;;33.17;16.13;;;-1.40;99.90;;;;;;4936651;29;20268;-84
2023/11/23 05:12:51;;;;;;;36.97;15.60;;;-1.30;99.90;;;;;;4935590;29;20236;-84
2023/11/23 05:15:19;;;;;;;33.20;14.77;;;-1.30;99.90;;;;;;4918201;29;20644;-85
2023/11/23 05:17:46;;;;;;;35.17;15.70;;;-1.20;99.90;;;;;;4934673;29;20195;-85
2023/11/23 05:20:13;;;;;;;32.73;15.53;;;-1.20;99.90;;;;;;4935559;29;20195;-84
2023/11/23 05:22:41;;;;;;;37.30;15.63;;;-1.10;99.90;;;;;;4918556;29;20248;-85
2023/11/23 05:25:08;;;;;;;37.83;15.57;;;-1.00;99.90;;;;;;4935570;29;20232;-84
2023/11/23 05:27:35;;;;;;;32.47;14.67;;;-1.00;99.90;;;;;;4918978;29;20286;-85
2023/11/23 05:30:03;;;;;;;35.10;14.90;;;-0.90;99.90;;;;;;4935568;29;20203;-87
2023/11/23 05:32:30;;;;;;;30.50;14.50;;;-0.90;99.90;;;;;;4935901;29;20301;-87
2023/11/23 05:34:57;;;;;;;34.33;15.10;;;-0.80;99.90;;;;;;4935551;29;20555;-85
2023/11/23 05:37:25;;;;;;;33.50;15.33;;;-0.80;99.90;;;;;;4935452;29;20806;-86
2023/11/23 05:39:52;;;;;;;28.97;14.33;;;-0.80;99.90;;;;;;4934367;29;20298;-85
2023/11/23 05:42:19;;;;;;;30.30;14.27;;;-0.70;99.90;;;;;;4935446;29;20713;-84
2023/11/23 05:44:46;;;;;;;30.53;14.00;;;-0.70;99.90;;;;;;4933916;29;20277;-84
2023/11/23 05:47:14;;;;;;;30.97;14.40;;;-0.70;99.90;;;;;;4935487;29;20199;-84
2023/11/23 05:49:41;;;;;;;31.83;14.07;;;-0.60;99.90;;;;;;4917823;29;20574;-85
2023/11/23 05:52:09;;;;;;;30.57;13.83;;;-0.60;99.90;;;;;;4934574;29;20240;-84
2023/11/23 05:54:37;;;;;;;31.80;14.30;;;-0.50;99.90;;;;;;4935499;29;20284;-83
2023/11/23 05:57:04;;;;;;;32.53;14.70;;;-0.50;99.90;;;;;;4935189;29;20242;-84
2023/11/23 05:59:51;;;;;;;32.97;14.23;;;-0.50;99.90;;;;;;4934990;29;20243;-81
2023/11/23 06:02:21;;;;;;;30.03;14.27;;;-0.50;99.90;;;;;;4933783;29;20226;-82
2023/11/23 06:04:48;;;;;;;29.00;14.60;;;-0.40;99.90;;;;;;4935202;29;20206;-81
2023/11/23 06:07:15;;;;;;;33.67;14.40;;;-0.40;99.90;;;;;;4934934;29;20235;-82
2023/11/23 06:09:43;;;;;;;33.93;15.07;;;-0.50;99.90;;;;;;4935128;29;20203;-82
2023/11/23 06:12:10;;;;;;;32.17;14.83;;;-0.40;99.90;;;;;;4935002;29;20222;-82
2023/11/23 06:14:37;;;;;;;31.97;14.13;;;-0.40;99.90;;;;;;4935223;29;20206;-81
2023/11/23 06:17:09;;;;;;;30.70;14.70;;;-0.40;99.90;;;;;;4918284;29;20301;-81
2023/11/23 06:19:37;;;;;;;27.20;12.93;;;-0.40;99.90;;;;;;4919052;29;20200;-83
2023/11/23 06:22:04;;;;;;;33.20;13.77;;;-0.30;99.90;;;;;;4934935;29;20193;-85
2023/11/23 06:24:31;;;;;;;29.83;13.73;;;-0.30;99.90;;;;;;4934791;29;20221;-84
2023/11/23 06:26:58;;;;;;;32.60;14.53;;;-0.30;99.90;;;;;;4934975;29;20566;-85
2023/11/23 06:29:25;;;;;;;34.57;14.07;;;-0.30;99.90;;;;;;4936225;29;20197;-86
2023/11/23 06:31:52;;;;;;;31.57;13.23;;;-0.30;99.90;;;;;;4933849;29;20195;-86
2023/11/23 06:34:23;;;;;;;31.37;14.30;;;-0.30;99.90;;;;;;4917802;29;20241;-83
2023/11/23 06:36:51;;;;;;;31.73;14.10;;;-0.20;99.90;;;;;;4951404;28;20245;-84
2023/11/23 06:39:24;;;;;;;31.17;13.63;;;-0.20;99.90;;;;;;4939115;29;20206;-88
2023/11/23 06:41:52;;;;;;;32.10;14.40;;;-0.10;99.90;;;;;;4938403;29;20249;-83
2023/11/23 06:44:25;;;;;;;30.60;14.03;;;0.00;99.90;;;;;;4937131;29;20205;-81
2023/11/23 06:46:52;;;;;;;28.87;13.33;;;-0.10;99.90;;;;;;4938294;29;20655;-81
2023/11/23 06:49:19;;;;;;;28.97;13.10;;;-0.10;99.90;;;;;;4938743;29;20216;-84
2023/11/23 06:51:47;;;;;;;24.57;12.53;;;0.00;99.90;;;;;;4936524;29;20287;-85
2023/11/23 06:54:14;;;;;;;27.53;12.67;;;0.10;99.90;;;;;;4938498;29;20343;-88
2023/11/23 06:56:41;;;;;;;30.57;13.60;;;0.10;99.90;;;;;;4938475;29;20228;-86
2023/11/23 06:59:08;;;;;;;29.80;12.97;;;0.10;99.90;;;;;;4938108;29;20266;-88
2023/11/23 07:01:35;;;;;;;30.23;13.53;;;0.20;99.90;;;;;;4936970;29;20313;-84
2023/11/23 07:04:04;;;;;;;29.93;13.20;;;0.20;99.90;;;;;;4937850;29;20219;-83
2023/11/23 07:06:31;;;;;;;28.33;12.37;;;0.20;99.90;;;;;;4938071;29;20201;-83
2023/11/23 07:08:59;;;;;;;30.67;12.70;;;0.20;99.90;;;;;;4936248;29;20234;-85
2023/11/23 07:11:26;;;;;;;28.50;12.70;;;0.20;99.90;;;;;;4936361;29;20320;-85
2023/11/23 07:13:53;;;;;;;27.20;12.40;;;0.30;99.90;;;;;;4937644;29;20226;-83
2023/11/23 07:16:21;;;;;;;30.40;13.20;;;0.20;99.90;;;;;;4936603;29;20597;-80
2023/11/23 07:18:48;;;;;;;30.10;12.47;;;0.30;99.90;;;;;;4937699;29;20212;-81
2023/11/23 07:21:15;;;;;;;28.03;12.97;;;0.30;99.90;;;;;;4920013;29;20221;-81
2023/11/23 07:23:43;;;;;;;28.87;12.93;;;0.20;99.90;;;;;;4936164;29;20199;-82
2023/11/23 07:26:11;;;;;;;29.17;12.77;;;0.20;99.90;;;;;;4937506;29;20212;-82
2023/11/23 07:28:38;;;;;;;31.40;13.77;;;0.30;99.90;;;;;;4937124;29;20677;-81
2023/11/23 07:31:09;;;;;;;28.97;12.13;;;0.30;99.90;;;;;;4935904;29;20309;-82
2023/11/23 07:33:37;;;;;;;33.93;14.60;;;0.30;99.90;;;;;;4937271;29;20308;-82
2023/11/23 07:36:05;;;;;;;28.77;12.67;;;0.30;99.90;;;;;;4920120;29;20202;-82
2023/11/23 07:38:32;;;;;;;27.93;12.10;;;0.30;99.90;;;;;;4937667;29;20232;-82
2023/11/23 07:41:04;;;;;;;27.77;12.57;;;0.30;99.90;;;;;;4951800;29;20231;-82
2023/11/23 07:43:31;;;;;;;27.27;12.30;;;0.30;99.90;;;;;;4937470;29;20220;-82
2023/11/23 07:45:59;;;;;;;27.37;11.73;;;0.40;99.90;;;;;;4936264;29;20235;-81
2023/11/23 07:48:28;;;;;;;28.53;11.93;;;0.40;99.90;;;;;;4950504;28;20197;-82
2023/11/23 07:50:56;;;;;;;30.10;12.10;;;0.40;99.90;;;;;;4937154;29;20261;-82
2023/11/23 07:53:28;;;;;;;34.67;12.07;;;0.40;99.90;;;;;;4919655;29;20291;-82
2023/11/23 07:55:57;;;;;;;29.77;12.87;;;0.40;99.90;;;;;;4936795;29;20223;-82
2023/11/23 07:58:24;;;;;;;30.97;13.40;;;0.50;99.90;;;;;;4935862;29;20208;-81
2023/11/23 08:00:52;;;;;;;27.33;11.87;;;0.50;99.90;;;;;;4937116;29;20204;-82
2023/11/23 08:03:19;;;;;;;27.40;11.97;;;0.50;99.90;;;;;;4935368;29;20233;-83
2023/11/23 08:05:47;;;;;;;25.53;11.43;;;0.60;99.90;;;;;;4935603;29;20209;-82
2023/11/23 08:08:14;;;;;;;32.63;12.20;;;0.60;99.90;;;;;;4936582;29;20222;-82
2023/11/23 08:10:42;;;;;;;26.27;11.97;;;0.60;99.90;;;;;;4919303;29;20226;-83
2023/11/23 08:13:09;;;;;;;28.10;11.20;;;0.60;99.90;;;;;;4919173;29;20222;-82
2023/11/23 08:15:36;;;;;;;27.27;11.33;;;0.60;99.90;;;;;;4936650;29;20652;-82
2023/11/23 08:18:05;;;;;;;28.93;12.00;;;0.70;99.90;;;;;;4950838;29;20214;-83
2023/11/23 08:20:36;;;;;;;27.07;10.67;;;0.70;99.90;;;;;;4936637;29;20210;-82
2023/11/23 08:23:04;;;;;;;23.17;10.67;;;0.70;99.90;;;;;;4935780;29;20207;-82
2023/11/23 08:25:32;;;;;;;25.00;10.47;;;0.80;99.90;;;;;;4936205;29;20226;-81
2023/11/23 08:27:59;;;;;;;25.70;11.13;;;0.80;99.90;;;;;;4935210;29;20292;-81
2023/11/23 08:30:28;;;;;;;23.40;10.23;;;0.80;99.90;;;;;;4936409;29;20229;-81
2023/11/23 08:32:55;;;;;;;24.73;10.23;;;0.80;99.90;;;;;;4936233;29;20302;-81
2023/11/23 08:35:23;;;;;;;24.17;10.17;;;0.80;99.90;;;;;;4935987;29;20663;-81
2023/11/23 08:37:50;;;;;;;22.07;10.17;;;0.90;99.90;;;;;;4936295;29;20204;-81
2023/11/23 08:40:18;;;;;;;22.43;10.17;;;0.90;99.90;;;;;;4936080;29;20199;-80
2023/11/23 08:42:45;;;;;;;20.77;9.50;;;0.90;99.90;;;;;;4936155;29;20245;-80
2023/11/23 08:45:12;;;;;;;23.23;10.97;;;1.00;99.90;;;;;;4936058;29;20673;-80
2023/11/23 08:47:39;;;;;;;24.80;9.90;;;1.00;99.90;;;;;;4934363;29;20209;-80
2023/11/23 08:50:09;;;;;;;20.47;9.60;;;1.10;99.90;;;;;;4934472;29;20246;-80
2023/11/23 08:52:37;;;;;;;20.63;9.23;;;1.10;99.90;;;;;;4919154;29;20230;-81
2023/11/23 08:55:08;;;;;;;21.73;9.63;;;1.10;99.90;;;;;;4935494;29;20221;-80
2023/11/23 08:57:37;;;;;;;21.70;10.57;;;1.20;99.90;;;;;;4935592;29;20194;-81
2023/11/23 09:00:16;;;;;;;24.53;10.40;;;1.20;99.90;;;;;;4935588;29;20200;-81
2023/11/23 09:02:43;;;;;;;24.00;10.03;;;1.20;99.90;;;;;;4936093;29;20212;-81
2023/11/23 09:05:11;;;;;;;28.50;11.00;;;1.30;99.90;;;;;;4935745;29;20203;-80
2023/11/23 09:07:38;;;;;;;26.93;11.33;;;1.30;99.90;;;;;;4941488;29;20730;-81
2023/11/23 09:10:07;;;;;;;23.67;10.80;;;1.30;99.90;;;;;;4953458;29;20194;-81
2023/11/23 09:12:34;;;;;;;24.63;11.37;;;1.30;99.90;;;;;;4954883;29;20296;-81
2023/11/23 09:15:04;;;;;;;24.23;11.50;;;1.30;99.90;;;;;;4954748;29;20221;-80
2023/11/23 09:17:33;;;;;;;25.20;10.63;;;1.40;99.90;;;;;;4954929;29;20206;-80
2023/11/23 09:20:00;;;;;;;25.17;10.43;;;1.40;99.90;;;;;;4938087;29;20697;-81
2023/11/23 09:22:27;;;;;;;23.27;11.33;;;1.50;99.90;;;;;;4956387;29;20197;-81
2023/11/23 09:24:55;;;;;;;23.80;11.33;;;1.40;99.90;;;;;;4937960;29;20201;-82
2023/11/23 09:27:22;;;;;;;26.17;11.20;;;1.50;99.90;;;;;;4954415;29;20239;-81
2023/11/23 09:29:50;;;;;;;29.70;11.97;;;1.50;99.90;;;;;;4954363;29;20192;-81
2023/11/23 09:32:17;;;;;;;25.80;12.53;;;1.60;99.90;;;;;;4954546;29;20673;-81
2023/11/23 09:34:44;;;;;;;26.80;12.80;;;1.50;99.90;;;;;;4954075;28;20223;-81
2023/11/23 09:37:11;;;;;;;29.97;12.93;;;1.50;99.90;;;;;;4954650;29;20544;-81
2023/11/23 09:39:39;;;;;;;29.33;13.43;;;1.50;99.90;;;;;;4954620;29;20237;-82
2023/11/23 09:42:08;;;;;;;28.80;13.03;;;1.50;99.90;;;;;;4952913;29;20705;-81
2023/11/23 09:44:36;;;;;;;28.70;13.33;;;1.60;99.90;;;;;;4937866;29;20233;-81
2023/11/23 09:47:06;;;;;;;28.97;13.63;;;1.60;99.90;;;;;;4953055;29;20203;-80
2023/11/23 09:49:35;;;;;;;33.50;13.27;;;1.60;99.90;;;;;;4954888;29;20246;-81
2023/11/23 09:52:02;;;;;;;36.27;14.03;;;1.60;99.90;;;;;;4953245;29;20201;-81
2023/11/23 09:54:33;;;;;;;28.87;12.60;;;1.70;99.90;;;;;;4954315;29;20225;-82
2023/11/23 09:57:01;;;;;;;32.83;14.53;;;1.70;99.90;;;;;;4952856;29;20759;-82
2023/11/23 09:59:28;;;;;;;31.00;13.20;;;1.80;99.90;;;;;;4954325;29;20283;-82
2023/11/23 10:02:03;;;;;;;29.00;13.53;;;1.80;99.90;;;;;;4937554;29;20250;-82
2023/11/23 10:04:32;;;;;;;29.87;13.67;;;1.80;99.90;;;;;;4952999;29;20206;-81
2023/11/23 10:07:01;;;;;;;28.47;13.67;;;1.80;99.90;;;;;;4953820;29;20224;-81
2023/11/23 10:09:32;;;;;;;30.27;13.73;;;1.90;99.90;;;;;;4937202;29;20592;-81
2023/11/23 10:12:02;;;;;;;31.23;14.10;;;1.90;99.90;;;;;;4955871;28;20213;-81
2023/11/23 10:14:29;;;;;;;30.93;13.83;;;2.00;99.90;;;;;;4956596;29;20242;-82
2023/11/23 10:16:57;;;;;;;34.07;14.27;;;2.10;99.90;;;;;;4957492;29;20206;-82
2023/11/23 10:19:24;;;;;;;30.67;14.80;;;2.10;99.90;;;;;;4957854;29;20214;-82
2023/11/23 10:21:58;;;;;;;30.80;14.57;;;2.10;99.90;;;;;;4940599;28;20202;-82
2023/11/23 10:24:27;;;;;;;32.03;14.87;;;2.10;99.90;;;;;;4957830;29;20196;-81
2023/11/23 10:26:55;;;;;;;31.67;14.83;;;2.20;99.90;;;;;;4940451;29;20221;-80
2023/11/23 10:29:28;;;;;;;32.37;15.00;;;2.20;99.90;;;;;;4956294;29;20205;-80
2023/11/23 10:31:59;;;;;;;33.23;15.20;;;2.30;99.90;;;;;;4957515;29;20289;-81
2023/11/23 10:34:30;;;;;;;30.57;15.10;;;2.30;99.90;;;;;;4956086;29;20310;-81
2023/11/23 10:36:59;;;;;;;32.47;15.27;;;2.40;99.90;;;;;;4957624;29;20197;-81
2023/11/23 10:39:27;;;;;;;33.30;15.13;;;2.40;99.90;;;;;;4957567;29;20239;-81
2023/11/23 10:41:57;;;;;;;32.13;15.97;;;2.40;99.90;;;;;;4955935;29;20304;-81
2023/11/23 10:44:26;;;;;;;33.10;14.83;;;2.50;99.90;;;;;;4957550;29;20655;-82
2023/11/23 10:46:58;;;;;;;31.67;15.40;;;2.60;99.90;;;;;;4939978;29;20205;-82
2023/11/23 10:49:27;;;;;;;32.93;15.90;;;2.70;99.90;;;;;;4939899;29;20213;-81
2023/11/23 10:51:54;;;;;;;29.63;14.50;;;2.70;99.90;;;;;;4957105;29;20249;-82
2023/11/23 10:54:22;;;;;;;34.47;15.33;;;2.80;99.90;;;;;;4940178;29;20269;-82
2023/11/23 10:56:50;;;;;;;31.53;15.53;;;3.00;99.90;;;;;;4940006;29;20212;-82
2023/11/23 10:59:20;;;;;;;31.70;15.73;;;3.00;99.90;;;;;;4957063;29;20289;-82
2023/11/23 11:01:51;;;;;;;29.43;14.30;;;3.10;99.90;;;;;;4957341;29;20200;-82
2023/11/23 11:04:19;;;;;;;34.10;16.17;;;3.10;99.90;;;;;;4956848;29;20197;-82
2023/11/23 11:06:49;;;;;;;38.27;18.73;;;3.10;99.90;;;;;;4939515;29;20234;-82
2023/11/23 11:09:17;;;;;;;34.93;16.70;;;3.10;99.90;;;;;;4956686;29;20238;-82
2023/11/23 11:11:56;;;;;;;34.07;17.13;;;3.20;99.90;;;;;;4939939;29;20260;-83
2023/11/23 11:14:36;;;;;;;29.80;14.43;;;3.30;99.90;;;;;;4956601;29;20240;-82
2023/11/23 11:17:06;;;;;;;30.80;15.10;;;3.30;99.90;;;;;;4939700;29;20192;-82
2023/11/23 11:19:49;;;;;;;28.50;14.87;;;3.40;99.90;;;;;;4955821;29;20230;-83
2023/11/23 11:22:17;;;;;;;31.13;14.97;;;3.40;99.90;;;;;;4939098;29;20259;-83
2023/11/23 11:24:44;;;;;;;26.17;14.03;;;3.40;99.90;;;;;;4939307;29;20824;-83
2023/11/23 11:27:12;;;;;;;30.03;13.60;;;3.40;99.90;;;;;;4939482;29;20767;-82
2023/11/23 11:29:52;;;;;;;28.20;13.77;;;3.50;99.90;;;;;;4955219;29;20651;-82
2023/11/23 11:32:23;;;;;;;27.17;13.70;;;3.50;99.90;;;;;;4955098;29;20253;-82
2023/11/23 11:35:00;;;;;;;26.13;13.87;;;3.60;99.90;;;;;;4955478;29;20320;-82
2023/11/23 11:37:30;;;;;;;22.67;12.53;;;3.50;99.90;;;;;;4956628;29;20208;-82
2023/11/23 11:40:00;;;;;;;27.27;14.27;;;3.50;99.90;;;;;;4956606;29;20213;-82
2023/11/23 11:42:29;;;;;;;26.63;14.10;;;3.50;99.90;;;;;;4954913;29;20216;-82
2023/11/23 11:44:57;;;;;;;27.50;14.03;;;3.50;99.90;;;;;;4939292;29;20192;-82
2023/11/23 11:47:25;;;;;;;29.70;14.23;;;3.60;99.90;;;;;;4956303;29;20287;-82
2023/11/23 11:49:54;;;;;;;26.40;14.07;;;3.50;99.90;;;;;;4954931;29;20665;-82
2023/11/23 11:52:22;;;;;;;33.53;15.20;;;3.60;99.90;;;;;;4938708;29;20289;-82
2023/11/23 11:54:49;;;;;;;27.77;14.23;;;3.60;99.90;;;;;;4955790;29;20228;-82
2023/11/23 11:57:18;;;;;;;29.20;14.77;;;3.60;99.90;;;;;;4938664;29;20308;-82
2023/11/23 11:59:46;;;;;;;29.87;14.93;;;3.70;99.90;;;;;;4923109;29;20201;-82
2023/11/23 12:02:14;;;;;;;28.47;14.80;;;3.80;99.90;;;;;;4954927;29;20245;-82
2023/11/23 12:04:41;;;;;;;28.70;14.60;;;3.80;99.90;;;;;;4938542;29;20296;-82
2023/11/23 12:07:14;;;;;;;31.63;15.77;;;3.90;99.90;;;;;;4938299;29;20213;-81
2023/11/23 12:09:41;;;;;;;29.63;14.63;;;3.90;99.90;;;;;;4955856;29;20198;-82
2023/11/23 12:12:13;;;;;;;28.13;15.17;;;4.00;99.90;;;;;;4954316;29;20223;-82
2023/11/23 12:14:40;;;;;;;29.57;14.77;;;4.00;99.90;;;;;;4938333;29;20227;-81
2023/11/23 12:17:11;;;;;;;28.70;14.80;;;4.00;99.90;;;;;;4954029;29;20211;-82
2023/11/23 12:19:52;;;;;;;25.07;13.50;;;4.00;99.90;;;;;;4954026;29;20198;-82
2023/11/23 12:22:26;;;;;;;28.63;15.33;;;4.10;99.90;;;;;;4955387;29;20202;-82
2023/11/23 12:24:56;;;;;;;28.73;14.93;;;4.10;99.90;;;;;;4939231;29;20618;-82
2023/11/23 12:27:25;;;;;;;28.97;15.27;;;4.10;99.90;;;;;;4955515;29;20221;-81
2023/11/23 12:29:53;;;;;;;28.27;15.23;;;4.20;99.90;;;;;;4954560;29;20198;-82
2023/11/23 12:32:21;;;;;;;27.27;14.90;;;4.20;99.90;;;;;;4955236;29;20212;-81
2023/11/23 12:34:52;;;;;;;26.67;14.93;;;4.20;99.90;;;;;;4937463;29;20222;-82
2023/11/23 12:37:20;;;;;;;25.60;14.60;;;4.20;99.90;;;;;;4955198;29;20203;-82
2023/11/23 12:39:50;;;;;;;30.53;14.90;;;4.40;99.90;;;;;;4955343;29;20201;-82
2023/11/23 12:42:17;;;;;;;26.53;14.43;;;4.40;99.90;;;;;;4937666;29;20230;-81
2023/11/23 12:44:46;;;;;;;25.17;14.57;;;4.50;99.90;;;;;;4955105;29;20194;-82